createdAt,value
2023-02-27T00:00:15.314Z,99.90
2023-02-27T00:02:47.149Z,99.90
2023-02-27T00:05:14.468Z,99.90
2023-02-27T00:07:41.603Z,99.90
2023-02-27T00:10:09.616Z,99.90
2023-02-27T00:12:38.017Z,99.90
2023-02-27T00:15:10.834Z,99.90
2023-02-27T00:17:37.694Z,99.90
2023-02-27T00:20:13.012Z,99.90
2023-02-27T00:22:40.798Z,99.90
2023-02-27T00:25:08.117Z,99.90
2023-02-27T00:27:35.116Z,99.90
2023-02-27T00:30:01.983Z,99.90
2023-02-27T00:32:29.469Z,99.90
2023-02-27T00:34:56.427Z,99.90
2023-02-27T00:37:23.289Z,99.90
2023-02-27T00:39:50.473Z,99.90
2023-02-27T00:42:17.294Z,99.90
2023-02-27T00:44:44.112Z,99.90
2023-02-27T00:47:10.906Z,99.90
2023-02-27T00:49:37.920Z,99.90
2023-02-27T00:52:04.989Z,99.90
2023-02-27T00:54:31.772Z,99.90
2023-02-27T00:56:58.619Z,99.90
2023-02-27T00:59:25.410Z,99.90
2023-02-27T01:01:52.212Z,99.90
2023-02-27T01:04:19.042Z,99.90
2023-02-27T01:06:45.818Z,99.90
2023-02-27T01:09:12.666Z,99.90
2023-02-27T01:11:39.533Z,99.90
2023-02-27T01:14:06.630Z,99.90
2023-02-27T01:16:35.328Z,99.90
2023-02-27T01:19:02.227Z,99.90
2023-02-27T01:21:29.152Z,99.90
2023-02-27T01:23:56.084Z,99.90
2023-02-27T01:26:23.146Z,99.90
2023-02-27T01:28:49.978Z,99.90
2023-02-27T01:31:16.874Z,99.90
2023-02-27T01:33:43.684Z,99.90
2023-02-27T01:36:10.561Z,99.90
2023-02-27T01:38:37.533Z,99.90
2023-02-27T01:41:06.258Z,99.90
2023-02-27T01:43:33.661Z,99.90
2023-02-27T01:46:01.273Z,99.90
2023-02-27T01:48:36.094Z,99.90
2023-02-27T01:51:13.488Z,99.90
2023-02-27T01:53:41.947Z,99.90
2023-02-27T01:56:16.746Z,99.90
2023-02-27T01:58:44.359Z,99.90
2023-02-27T02:01:11.264Z,99.90
2023-02-27T02:03:48.570Z,99.90
2023-02-27T02:06:15.551Z,99.90
2023-02-27T02:08:45.507Z,99.90
2023-02-27T02:11:13.943Z,99.90
2023-02-27T02:13:41.454Z,99.90
2023-02-27T02:16:34.244Z,99.90
2023-02-27T02:19:23.655Z,99.90
2023-02-27T02:22:16.107Z,99.90
2023-02-27T02:25:00.865Z,99.90
2023-02-27T02:27:55.111Z,99.90
2023-02-27T02:30:54.550Z,1.00
2023-02-27T02:34:05.054Z,1.00
2023-02-27T02:37:06.131Z,1.00
2023-02-27T02:39:45.775Z,1.00
2023-02-27T02:42:44.823Z,1.00
2023-02-27T02:45:32.426Z,1.00
2023-02-27T02:48:18.365Z,1.00
2023-02-27T02:50:51.624Z,1.00
2023-02-27T02:53:37.761Z,1.00
2023-02-27T02:56:10.830Z,1.00
2023-02-27T02:58:47.820Z,1.00
2023-02-27T03:01:37.529Z,1.00
2023-02-27T03:04:18.821Z,1.00
2023-02-27T03:07:16.939Z,1.00
2023-02-27T03:09:56.151Z,1.00
2023-02-27T03:12:24.815Z,1.00
2023-02-27T03:14:58.211Z,1.00
2023-02-27T03:17:35.338Z,1.00
2023-02-27T03:20:11.570Z,1.00
2023-02-27T03:22:41.067Z,1.00
2023-02-27T03:25:10.225Z,1.00
2023-02-27T03:27:43.244Z,1.00
2023-02-27T03:30:10.507Z,1.00
2023-02-27T03:33:02.733Z,1.00
2023-02-27T03:35:58.207Z,1.00
2023-02-27T03:38:57.317Z,1.00
2023-02-27T03:41:51.975Z,1.00
2023-02-27T03:44:36.492Z,99.90
2023-02-27T03:47:03.436Z,99.90
2023-02-27T03:49:30.243Z,99.90
2023-02-27T03:51:57.054Z,99.90
2023-02-27T03:54:31.713Z,1.00
2023-02-27T03:57:02.174Z,99.90
2023-02-27T03:59:29.688Z,99.90
2023-02-27T04:01:57.567Z,99.90
2023-02-27T04:04:25.345Z,99.90
2023-02-27T04:07:15.360Z,99.90
2023-02-27T04:10:07.058Z,1.00
2023-02-27T04:13:03.197Z,1.00
2023-02-27T04:15:48.756Z,1.00
2023-02-27T04:18:30.373Z,1.00
2023-02-27T04:21:01.285Z,1.00
2023-02-27T04:23:28.025Z,99.90
2023-02-27T04:26:06.225Z,99.90
2023-02-27T04:28:44.856Z,99.90
2023-02-27T04:31:38.723Z,99.90
2023-02-27T04:34:45.713Z,99.90
2023-02-27T04:37:26.290Z,99.90
2023-02-27T04:39:57.428Z,1.00
2023-02-27T04:42:28.198Z,1.00
2023-02-27T04:44:57.636Z,1.00
2023-02-27T04:47:25.585Z,1.00
2023-02-27T04:49:57.273Z,99.90
2023-02-27T04:52:45.356Z,99.90
2023-02-27T04:55:15.969Z,1.00
2023-02-27T04:58:00.641Z,1.00
2023-02-27T05:00:28.918Z,1.00
2023-02-27T05:03:02.172Z,1.00
2023-02-27T05:05:32.510Z,1.00
2023-02-27T05:08:09.591Z,1.00
2023-02-27T05:10:41.434Z,1.00
2023-02-27T05:13:15.294Z,1.00
2023-02-27T05:16:07.169Z,1.00
2023-02-27T05:18:37.028Z,1.00
2023-02-27T05:21:24.746Z,1.00
2023-02-27T05:24:04.106Z,1.00
2023-02-27T05:26:56.031Z,62.30
2023-02-27T05:29:33.935Z,99.90
2023-02-27T05:32:13.019Z,99.90
2023-02-27T05:34:48.847Z,99.90
2023-02-27T05:37:19.873Z,99.90
2023-02-27T05:39:47.382Z,99.90
2023-02-27T05:42:20.016Z,61.50
2023-02-27T05:44:55.443Z,28.30
2023-02-27T05:47:24.148Z,27.60
2023-02-27T05:50:06.339Z,58.20
2023-02-27T05:52:34.343Z,23.00
2023-02-27T05:55:06.384Z,99.90
2023-02-27T05:57:42.222Z,99.90
2023-02-27T06:00:35.326Z,99.90
2023-02-27T06:03:02.286Z,99.90
2023-02-27T06:05:29.397Z,99.90
2023-02-27T06:07:56.494Z,99.90
2023-02-27T06:10:23.402Z,99.90
2023-02-27T06:12:50.322Z,99.90
2023-02-27T06:15:18.799Z,99.90
2023-02-27T06:17:45.713Z,99.90
2023-02-27T06:20:12.976Z,99.90
2023-02-27T06:22:40.157Z,99.90
2023-02-27T06:25:08.206Z,99.90
2023-02-27T06:27:34.976Z,99.90
2023-02-27T06:30:01.768Z,99.90
2023-02-27T06:32:28.693Z,99.90
2023-02-27T06:34:55.758Z,99.90
2023-02-27T06:37:22.602Z,99.90
2023-02-27T06:39:49.457Z,99.90
2023-02-27T06:42:16.959Z,99.90
2023-02-27T06:44:43.989Z,99.90
2023-02-27T06:47:10.886Z,99.90
2023-02-27T06:49:37.776Z,99.90
2023-02-27T06:52:04.901Z,99.90
2023-02-27T06:54:31.716Z,99.90
2023-02-27T06:56:58.530Z,99.90
2023-02-27T06:59:25.517Z,99.90
2023-02-27T07:01:52.287Z,99.90
2023-02-27T07:04:19.160Z,99.90
2023-02-27T07:07:34.897Z,99.90
2023-02-27T07:09:33.226Z,99.90
2023-02-27T07:12:00.143Z,99.90
2023-02-27T07:14:26.950Z,99.90
2023-02-27T07:16:56.576Z,99.90
2023-02-27T07:19:24.210Z,99.90
2023-02-27T07:21:51.103Z,1.00
2023-02-27T07:24:18.080Z,1.00
2023-02-27T07:26:45.046Z,1.00
2023-02-27T07:29:11.918Z,1.00
2023-02-27T07:31:38.742Z,1.00
2023-02-27T07:34:05.857Z,1.00
2023-02-27T07:36:33.975Z,1.00
2023-02-27T07:39:00.749Z,1.00
2023-02-27T07:41:30.712Z,1.00
2023-02-27T07:43:58.260Z,1.00
2023-02-27T07:46:28.074Z,1.00
2023-02-27T07:48:55.484Z,1.00
2023-02-27T07:51:23.041Z,1.00
2023-02-27T07:53:49.834Z,1.00
2023-02-27T07:56:16.718Z,1.00
2023-02-27T07:58:43.509Z,1.00
2023-02-27T08:01:10.235Z,1.00
2023-02-27T08:03:37.081Z,1.00
2023-02-27T08:06:04.038Z,1.00
2023-02-27T08:08:30.893Z,1.00
2023-02-27T08:10:58.589Z,1.00
2023-02-27T08:13:55.747Z,1.00
2023-02-27T08:16:12.506Z,1.00
2023-02-27T08:18:39.487Z,1.00
2023-02-27T08:21:06.383Z,1.00
2023-02-27T08:23:34.661Z,1.00
2023-02-27T08:26:02.798Z,1.00
2023-02-27T08:28:29.782Z,1.00
2023-02-27T08:30:56.703Z,1.00
2023-02-27T08:33:24.959Z,1.00
2023-02-27T08:35:51.992Z,1.00
2023-02-27T08:38:21.306Z,1.00
2023-02-27T08:40:56.060Z,1.00
2023-02-27T08:43:23.721Z,99.90
2023-02-27T08:45:50.898Z,99.90
2023-02-27T08:48:18.594Z,99.90
2023-02-27T08:50:46.687Z,99.90
2023-02-27T08:53:13.760Z,99.90
2023-02-27T08:55:40.836Z,99.90
2023-02-27T08:58:07.599Z,99.90
2023-02-27T09:00:34.635Z,99.90
2023-02-27T09:03:01.631Z,99.90
2023-02-27T09:05:29.161Z,99.90
2023-02-27T09:07:55.998Z,99.90
2023-02-27T09:10:23.112Z,99.90
2023-02-27T09:12:49.937Z,99.90
2023-02-27T09:15:16.891Z,99.90
2023-02-27T09:17:43.964Z,99.90
2023-02-27T09:20:11.406Z,99.90
2023-02-27T09:22:38.774Z,99.90
2023-02-27T09:25:06.539Z,99.90
2023-02-27T09:27:34.492Z,99.90
2023-02-27T09:30:01.314Z,99.90
2023-02-27T09:32:28.597Z,99.90
2023-02-27T09:34:55.601Z,99.90
2023-02-27T09:37:25.271Z,99.90
2023-02-27T09:39:52.205Z,99.90
2023-02-27T09:42:22.174Z,99.90
2023-02-27T09:44:51.786Z,99.20
2023-02-27T09:47:28.339Z,18.90
2023-02-27T09:50:27.743Z,1.00
2023-02-27T09:52:54.803Z,1.00
2023-02-27T09:55:22.606Z,1.00
2023-02-27T09:57:56.788Z,1.00
2023-02-27T10:00:38.244Z,1.00
2023-02-27T10:03:23.169Z,1.00
2023-02-27T10:05:59.165Z,1.00
2023-02-27T10:08:35.519Z,1.00
2023-02-27T10:11:05.987Z,1.00
2023-02-27T10:13:57.859Z,1.00
2023-02-27T10:16:25.876Z,1.00
2023-02-27T10:18:58.449Z,1.00
2023-02-27T10:21:31.688Z,1.00
2023-02-27T10:24:12.595Z,1.00
2023-02-27T10:26:44.224Z,99.90
2023-02-27T10:29:19.056Z,1.00
2023-02-27T10:31:47.318Z,99.90
2023-02-27T10:34:16.442Z,99.90
2023-02-27T10:36:45.594Z,99.90
2023-02-27T10:39:17.000Z,99.90
2023-02-27T10:41:45.751Z,99.90
2023-02-27T10:44:16.402Z,99.90
2023-02-27T10:46:43.460Z,99.90
2023-02-27T10:49:20.409Z,99.90
2023-02-27T10:52:03.060Z,99.90
2023-02-27T10:54:30.103Z,99.90
2023-02-27T10:56:59.894Z,99.90
2023-02-27T10:59:41.235Z,99.90
2023-02-27T11:02:17.096Z,99.90
2023-02-27T11:04:54.056Z,99.90
2023-02-27T11:07:30.548Z,99.90
2023-02-27T11:10:17.091Z,99.90
2023-02-27T11:12:57.595Z,99.90
2023-02-27T11:15:28.541Z,99.90
2023-02-27T11:17:55.355Z,99.90
2023-02-27T11:20:37.713Z,99.90
2023-02-27T11:23:14.850Z,99.90
2023-02-27T11:25:42.366Z,99.90
2023-02-27T11:28:28.792Z,99.90
2023-02-27T11:31:05.649Z,99.90
2023-02-27T11:33:38.915Z,99.90
2023-02-27T11:36:06.898Z,99.90
2023-02-27T11:38:34.860Z,99.90
2023-02-27T11:41:04.451Z,99.90
2023-02-27T11:43:34.762Z,99.90
2023-02-27T11:46:37.022Z,99.90
2023-02-27T11:49:06.711Z,99.90
2023-02-27T11:51:40.529Z,99.90
2023-02-27T11:54:09.515Z,99.90
2023-02-27T11:56:41.960Z,99.90
2023-02-27T11:59:12.415Z,99.90
2023-02-27T12:01:47.257Z,99.90
2023-02-27T12:04:37.361Z,99.90
2023-02-27T12:07:17.306Z,99.90
2023-02-27T12:10:05.057Z,99.90
2023-02-27T12:12:47.212Z,99.90
2023-02-27T12:15:39.147Z,99.90
2023-02-27T12:18:32.028Z,99.90
2023-02-27T12:21:07.717Z,99.90
2023-02-27T12:23:41.183Z,99.90
2023-02-27T12:26:14.900Z,99.90
2023-02-27T12:28:56.921Z,99.90
2023-02-27T12:31:43.149Z,99.90
2023-02-27T12:35:00.855Z,99.90
2023-02-27T12:37:33.755Z,99.90
2023-02-27T12:40:01.991Z,99.90
2023-02-27T12:42:52.410Z,99.90
2023-02-27T12:45:24.038Z,99.90
2023-02-27T12:48:19.043Z,99.90
2023-02-27T12:51:04.608Z,99.90
2023-02-27T12:54:06.645Z,99.90
2023-02-27T12:57:03.366Z,99.90
2023-02-27T12:59:39.062Z,96.40
2023-02-27T13:02:43.573Z,99.90
2023-02-27T13:05:34.517Z,99.90
2023-02-27T13:08:01.677Z,99.50
2023-02-27T13:10:45.415Z,66.10
2023-02-27T13:13:16.760Z,58.00
2023-02-27T13:15:45.469Z,59.50
2023-02-27T13:18:33.033Z,63.10
2023-02-27T13:21:08.537Z,66.60
2023-02-27T13:24:05.363Z,68.00
2023-02-27T13:26:37.802Z,47.30
2023-02-27T13:29:05.663Z,54.70
2023-02-27T13:31:42.622Z,60.70
2023-02-27T13:34:36.603Z,64.10
2023-02-27T13:37:06.454Z,47.90
2023-02-27T13:39:45.932Z,47.50
2023-02-27T13:42:28.156Z,41.80
2023-02-27T13:45:27.846Z,44.80
2023-02-27T13:47:56.664Z,43.70
2023-02-27T13:50:26.770Z,29.60
2023-02-27T13:52:53.772Z,22.30
2023-02-27T13:55:31.928Z,27.50
2023-02-27T13:57:59.979Z,26.60
2023-02-27T14:00:29.512Z,35.60
2023-02-27T14:03:00.806Z,29.80
2023-02-27T14:05:40.124Z,26.50
2023-02-27T14:08:11.910Z,19.90
2023-02-27T14:10:40.942Z,25.70
2023-02-27T14:13:45.784Z,32.10
2023-02-27T14:16:37.392Z,23.40
2023-02-27T14:19:16.455Z,19.40
2023-02-27T14:21:52.234Z,24.00
2023-02-27T14:24:21.797Z,16.30
2023-02-27T14:26:48.788Z,10.90
2023-02-27T14:29:22.980Z,13.10
2023-02-27T14:31:50.645Z,7.70
2023-02-27T14:34:22.500Z,11.70
2023-02-27T14:36:54.852Z,19.80
2023-02-27T14:39:34.390Z,17.40
2023-02-27T14:42:27.642Z,7.40
2023-02-27T14:44:54.684Z,17.10
2023-02-27T14:47:37.786Z,3.80
2023-02-27T14:50:19.586Z,6.60
2023-02-27T14:52:46.433Z,12.70
2023-02-27T14:55:30.019Z,1.90
2023-02-27T14:58:16.814Z,16.00
2023-02-27T15:00:50.524Z,10.10
2023-02-27T15:03:20.675Z,13.00
2023-02-27T15:05:48.928Z,9.50
2023-02-27T15:08:25.516Z,2.70
2023-02-27T15:10:53.613Z,19.30
2023-02-27T15:13:39.639Z,15.20
2023-02-27T15:16:41.353Z,18.70
2023-02-27T15:19:16.754Z,17.70
2023-02-27T15:21:47.280Z,5.70
2023-02-27T15:24:47.790Z,12.20
2023-02-27T15:27:19.156Z,3.90
2023-02-27T15:29:57.717Z,4.60
2023-02-27T15:32:36.392Z,4.20
2023-02-27T15:35:20.021Z,4.70
2023-02-27T15:37:51.174Z,1.00
2023-02-27T15:40:22.216Z,1.00
2023-02-27T15:42:49.169Z,1.00
2023-02-27T15:45:20.793Z,1.00
2023-02-27T15:47:48.125Z,1.00
2023-02-27T15:50:17.940Z,1.00
2023-02-27T15:52:51.714Z,1.00
2023-02-27T15:55:25.045Z,1.00
2023-02-27T15:58:02.368Z,1.00
2023-02-27T16:00:31.408Z,1.00
2023-02-27T16:02:59.273Z,1.00
2023-02-27T16:05:39.796Z,1.00
2023-02-27T16:08:07.079Z,1.00
2023-02-27T16:10:41.204Z,1.00
2023-02-27T16:13:30.555Z,1.00
2023-02-27T16:16:02.882Z,1.00
2023-02-27T16:18:35.438Z,1.00
2023-02-27T16:21:17.009Z,1.00
2023-02-27T16:23:44.044Z,1.00
2023-02-27T16:26:27.200Z,1.00
2023-02-27T16:29:21.737Z,1.00
2023-02-27T16:31:53.548Z,1.00
2023-02-27T16:34:45.555Z,1.00
2023-02-27T16:37:24.672Z,1.00
2023-02-27T16:39:52.325Z,1.00
2023-02-27T16:42:19.287Z,1.00
2023-02-27T16:44:46.307Z,1.00
2023-02-27T16:47:13.430Z,1.00
2023-02-27T16:49:40.594Z,1.00
2023-02-27T16:52:13.497Z,1.00
2023-02-27T16:54:40.660Z,1.00
2023-02-27T16:57:07.941Z,1.00
2023-02-27T16:59:36.627Z,1.00
2023-02-27T17:02:05.922Z,1.00
2023-02-27T17:04:33.178Z,1.00
2023-02-27T17:07:01.336Z,1.00
2023-02-27T17:09:29.567Z,1.00
2023-02-27T17:11:57.226Z,1.00
2023-02-27T17:14:24.563Z,1.00
2023-02-27T17:16:51.617Z,1.00
2023-02-27T17:19:21.323Z,1.00
2023-02-27T17:21:48.848Z,1.00
2023-02-27T17:24:15.673Z,1.00
2023-02-27T17:26:42.449Z,1.00
2023-02-27T17:29:09.837Z,1.00
2023-02-27T17:31:37.310Z,1.00
2023-02-27T17:34:05.168Z,1.00
2023-02-27T17:36:32.160Z,1.00
2023-02-27T17:39:01.866Z,1.00
2023-02-27T17:41:30.054Z,1.00
2023-02-27T17:43:59.278Z,1.00
2023-02-27T17:46:28.771Z,1.00
2023-02-27T17:49:00.008Z,1.00
2023-02-27T17:51:28.558Z,1.00
2023-02-27T17:53:55.598Z,1.00
2023-02-27T17:56:25.627Z,1.00
2023-02-27T17:58:52.595Z,1.00
2023-02-27T18:01:22.922Z,1.00
2023-02-27T18:03:50.374Z,1.00
2023-02-27T18:06:17.341Z,1.00
2023-02-27T18:08:44.345Z,1.00
2023-02-27T18:11:12.562Z,1.00
2023-02-27T18:13:42.956Z,1.00
2023-02-27T18:16:10.585Z,1.00
2023-02-27T18:18:39.312Z,1.00
2023-02-27T18:21:12.160Z,1.00
2023-02-27T18:23:39.514Z,1.00
2023-02-27T18:26:08.082Z,1.00
2023-02-27T18:28:36.184Z,1.00
2023-02-27T18:31:03.120Z,1.00
2023-02-27T18:33:30.255Z,1.00
2023-02-27T18:35:57.127Z,1.00
2023-02-27T18:38:24.670Z,1.00
2023-02-27T18:40:51.733Z,1.00
2023-02-27T18:43:18.588Z,1.00
2023-02-27T18:45:45.726Z,1.00
2023-02-27T18:48:12.657Z,1.00
2023-02-27T18:50:39.592Z,1.00
2023-02-27T18:53:06.377Z,1.00
2023-02-27T18:55:33.885Z,1.00
2023-02-27T18:58:00.689Z,1.00
2023-02-27T19:00:27.608Z,1.00
2023-02-27T19:02:54.439Z,1.00
2023-02-27T19:05:21.373Z,1.00
2023-02-27T19:07:48.258Z,1.00
2023-02-27T19:10:15.367Z,1.00
2023-02-27T19:12:42.717Z,1.00
2023-02-27T19:15:10.852Z,1.00
2023-02-27T19:17:37.818Z,1.00
2023-02-27T19:20:07.038Z,1.00
2023-02-27T19:22:34.286Z,1.00
2023-02-27T19:25:01.385Z,1.00
2023-02-27T19:27:28.279Z,1.00
2023-02-27T19:29:55.258Z,1.00
2023-02-27T19:32:22.630Z,1.00
2023-02-27T19:34:49.571Z,1.00
2023-02-27T19:37:16.919Z,1.00
2023-02-27T19:39:44.063Z,1.00
2023-02-27T19:42:12.519Z,1.00
2023-02-27T19:44:40.648Z,1.00
2023-02-27T19:47:07.618Z,1.00
2023-02-27T19:49:34.814Z,1.00
2023-02-27T19:52:03.039Z,1.00
2023-02-27T19:54:30.706Z,1.00
2023-02-27T19:56:57.538Z,1.00
2023-02-27T19:59:24.949Z,1.00
2023-02-27T20:01:52.189Z,1.00
2023-02-27T20:04:19.190Z,1.00
2023-02-27T20:06:47.453Z,1.00
2023-02-27T20:09:17.266Z,1.00
2023-02-27T20:11:45.096Z,1.00
2023-02-27T20:14:13.937Z,1.00
2023-02-27T20:16:41.349Z,1.00
2023-02-27T20:19:10.540Z,1.00
2023-02-27T20:21:37.537Z,1.00
2023-02-27T20:24:04.721Z,1.00
2023-02-27T20:26:32.710Z,1.00
2023-02-27T20:29:09.795Z,1.00
2023-02-27T20:31:38.139Z,1.00
2023-02-27T20:34:06.234Z,1.00
2023-02-27T20:36:35.181Z,1.00
2023-02-27T20:39:02.498Z,1.00
2023-02-27T20:41:30.067Z,1.00
2023-02-27T20:43:57.139Z,1.00
2023-02-27T20:46:26.624Z,1.00
2023-02-27T20:48:56.470Z,1.00
2023-02-27T20:51:25.347Z,1.00
2023-02-27T20:53:54.675Z,1.90
2023-02-27T20:56:26.470Z,1.20
2023-02-27T20:58:53.497Z,1.00
2023-02-27T21:01:20.881Z,1.00
2023-02-27T21:03:50.797Z,1.00
2023-02-27T21:06:18.209Z,1.00
2023-02-27T21:08:48.063Z,2.00
2023-02-27T21:11:18.063Z,1.00
2023-02-27T21:13:46.927Z,1.00
2023-02-27T21:16:15.574Z,1.00
2023-02-27T21:18:42.875Z,2.80
2023-02-27T21:21:15.216Z,1.00
2023-02-27T21:23:42.269Z,1.20
2023-02-27T21:26:10.922Z,1.00
2023-02-27T21:28:42.592Z,22.20
2023-02-27T21:31:09.569Z,6.90
2023-02-27T21:33:36.508Z,5.40
2023-02-27T21:36:03.564Z,7.80
2023-02-27T21:38:30.964Z,8.10
2023-02-27T21:40:58.414Z,7.40
2023-02-27T21:43:25.334Z,8.00
2023-02-27T21:45:52.156Z,9.20
2023-02-27T21:48:19.029Z,10.40
2023-02-27T21:50:45.899Z,15.20
2023-02-27T21:53:12.722Z,14.40
2023-02-27T21:55:39.519Z,15.10
2023-02-27T21:58:10.208Z,17.80
2023-02-27T22:00:37.662Z,13.10
2023-02-27T22:03:04.554Z,10.40
2023-02-27T22:05:31.321Z,2.30
2023-02-27T22:07:58.190Z,2.00
2023-02-27T22:10:25.135Z,3.10
2023-02-27T22:12:51.898Z,3.30
2023-02-27T22:15:18.750Z,4.60
2023-02-27T22:17:45.552Z,2.10
2023-02-27T22:20:12.684Z,4.80
2023-02-27T22:22:39.502Z,5.20
2023-02-27T22:25:06.794Z,1.00
2023-02-27T22:27:33.576Z,3.90
2023-02-27T22:30:00.348Z,7.60
2023-02-27T22:32:27.610Z,5.50
2023-02-27T22:34:57.767Z,1.00
2023-02-27T22:37:24.558Z,3.80
2023-02-27T22:39:51.370Z,1.20
2023-02-27T22:42:18.086Z,1.70
2023-02-27T22:44:44.904Z,1.00
2023-02-27T22:47:13.092Z,9.10
2023-02-27T22:49:39.849Z,1.10
2023-02-27T22:52:06.663Z,3.50
2023-02-27T22:54:33.546Z,1.00
2023-02-27T22:57:00.336Z,3.90
2023-02-27T22:59:27.142Z,1.00
2023-02-27T23:01:54.106Z,1.10
2023-02-27T23:04:22.212Z,1.00
2023-02-27T23:06:50.955Z,1.30
2023-02-27T23:09:20.906Z,4.90
2023-02-27T23:11:48.176Z,4.00
2023-02-27T23:14:15.243Z,1.00
2023-02-27T23:16:45.936Z,1.00
2023-02-27T23:19:16.427Z,1.00
2023-02-27T23:21:43.281Z,1.00
2023-02-27T23:24:18.236Z,1.00
2023-02-27T23:26:50.054Z,1.00
2023-02-27T23:29:16.972Z,1.00
2023-02-27T23:31:43.943Z,1.00
2023-02-27T23:34:11.057Z,1.00
2023-02-27T23:36:38.621Z,1.00
2023-02-27T23:39:06.657Z,1.00
2023-02-27T23:41:34.274Z,1.00
2023-02-27T23:44:01.687Z,1.00
2023-02-27T23:46:31.543Z,1.00
2023-02-27T23:48:59.199Z,1.00
2023-02-27T23:51:27.834Z,5.30
2023-02-27T23:53:55.863Z,1.50
2023-02-27T23:56:25.596Z,1.00
2023-02-27T23:58:57.660Z,6.40
